createdAt,value
2022-08-04T00:00:33.335Z,3.60
2022-08-04T00:03:05.392Z,3.72
2022-08-04T00:05:22.915Z,3.78
2022-08-04T00:07:44.734Z,3.80
2022-08-04T00:10:02.655Z,3.65
2022-08-04T00:12:15.174Z,3.80
2022-08-04T00:14:26.052Z,3.50
2022-08-04T00:16:40.804Z,3.80
2022-08-04T00:19:08.484Z,4.10
2022-08-04T00:21:22.121Z,4.20
2022-08-04T00:24:10.473Z,4.50
2022-08-04T00:25:59.401Z,3.70
2022-08-04T00:28:10.107Z,3.70
2022-08-04T00:30:18.108Z,3.20
2022-08-04T00:32:33.929Z,4.13
2022-08-04T00:34:42.377Z,4.10
2022-08-04T00:36:50.302Z,3.50
2022-08-04T00:39:06.708Z,3.97
2022-08-04T00:41:23.218Z,3.72
2022-08-04T00:43:36.070Z,4.20
2022-08-04T00:46:18.055Z,4.15
2022-08-04T00:48:40.173Z,4.10
2022-08-04T00:50:57.302Z,4.22
2022-08-04T00:53:12.081Z,3.75
2022-08-04T00:55:30.598Z,4.25
2022-08-04T00:57:54.120Z,4.30
2022-08-04T01:00:12.066Z,3.92
2022-08-04T01:02:32.386Z,4.45
2022-08-04T01:04:52.430Z,3.90
2022-08-04T01:07:17.267Z,3.60
2022-08-04T01:09:44.104Z,3.58
2022-08-04T01:12:19.135Z,4.40
2022-08-04T01:14:46.795Z,3.80
2022-08-04T01:17:12.990Z,4.07
2022-08-04T01:19:50.274Z,3.65
2022-08-04T01:22:30.879Z,3.65
2022-08-04T01:25:06.797Z,4.30
2022-08-04T01:27:29.286Z,3.90
2022-08-04T01:29:48.845Z,4.28
2022-08-04T01:32:08.159Z,3.60
2022-08-04T01:34:16.934Z,3.60
2022-08-04T01:36:27.631Z,4.30
2022-08-04T01:38:38.574Z,4.90
2022-08-04T01:40:49.484Z,4.47
2022-08-04T01:42:58.277Z,4.32
2022-08-04T01:45:11.166Z,4.03
2022-08-04T01:47:20.946Z,4.18
2022-08-04T01:49:40.521Z,4.45
2022-08-04T01:51:52.403Z,4.13
2022-08-04T01:54:00.289Z,4.13
2022-08-04T01:56:09.457Z,4.45
2022-08-04T01:58:20.942Z,4.22
2022-08-04T02:00:33.501Z,4.35
2022-08-04T02:02:41.692Z,4.47
2022-08-04T02:04:49.819Z,4.53
2022-08-04T02:07:07.765Z,4.78
2022-08-04T02:09:20.164Z,4.50
2022-08-04T02:11:28.645Z,4.15
2022-08-04T02:13:42.055Z,4.63
2022-08-04T02:16:00.713Z,4.05
2022-08-04T02:18:16.709Z,4.13
2022-08-04T02:20:27.576Z,4.57
2022-08-04T02:22:37.413Z,4.78
2022-08-04T02:24:51.576Z,4.20
2022-08-04T02:26:59.976Z,4.40
2022-08-04T02:29:16.379Z,4.22
2022-08-04T02:31:33.966Z,4.63
2022-08-04T02:33:45.521Z,4.28
2022-08-04T02:36:02.208Z,4.72
2022-08-04T02:38:25.613Z,4.68
2022-08-04T02:40:34.696Z,4.55
2022-08-04T02:42:42.566Z,4.80
2022-08-04T02:44:54.290Z,4.28
2022-08-04T02:47:05.838Z,4.80
2022-08-04T02:49:13.840Z,4.60
2022-08-04T02:51:26.068Z,4.70
2022-08-04T02:53:36.094Z,4.80
2022-08-04T02:55:51.147Z,4.78
2022-08-04T02:58:01.732Z,4.60
2022-08-04T03:00:13.295Z,4.75
2022-08-04T03:02:32.091Z,5.13
2022-08-04T03:04:52.760Z,4.80
2022-08-04T03:07:41.005Z,4.45
2022-08-04T03:10:17.265Z,4.63
2022-08-04T03:12:49.937Z,4.30
2022-08-04T03:15:40.646Z,5.10
2022-08-04T03:18:36.018Z,4.80
2022-08-04T03:21:19.097Z,4.65
2022-08-04T03:23:53.426Z,4.90
2022-08-04T03:26:31.613Z,4.93
2022-08-04T03:29:13.212Z,5.05
2022-08-04T03:31:45.382Z,4.57
2022-08-04T03:34:06.265Z,4.97
2022-08-04T03:36:41.090Z,4.88
2022-08-04T03:39:11.344Z,5.00
2022-08-04T03:41:51.292Z,5.28
2022-08-04T03:44:32.978Z,4.75
2022-08-04T03:47:01.805Z,4.90
2022-08-04T03:49:41.495Z,5.10
2022-08-04T03:52:16.744Z,4.82
2022-08-04T03:54:53.196Z,4.38
2022-08-04T03:57:51.767Z,4.90
2022-08-04T04:00:14.030Z,5.15
2022-08-04T04:02:54.938Z,4.70
2022-08-04T04:05:56.014Z,4.70
2022-08-04T04:08:45.398Z,5.18
2022-08-04T04:11:21.119Z,4.97
2022-08-04T04:13:59.142Z,5.00
2022-08-04T04:16:50.156Z,5.18
2022-08-04T04:19:33.654Z,5.32
2022-08-04T04:22:01.249Z,5.05
2022-08-04T04:24:41.910Z,5.78
2022-08-04T04:26:59.982Z,5.40
2022-08-04T04:29:29.607Z,5.80
2022-08-04T04:31:51.385Z,6.32
2022-08-04T04:34:11.255Z,5.63
2022-08-04T04:36:32.820Z,5.80
2022-08-04T04:39:01.779Z,5.60
2022-08-04T04:41:29.138Z,5.53
2022-08-04T04:44:03.246Z,5.78
2022-08-04T04:46:19.394Z,5.78
2022-08-04T04:48:39.717Z,5.72
2022-08-04T04:51:08.677Z,4.93
2022-08-04T04:53:27.056Z,5.10
2022-08-04T04:55:48.249Z,5.30
2022-08-04T04:58:01.280Z,5.30
2022-08-04T05:00:13.688Z,5.10
2022-08-04T05:03:01.085Z,4.77
2022-08-04T05:05:24.207Z,5.13
2022-08-04T05:08:44.729Z,5.30
2022-08-04T05:10:49.529Z,4.80
2022-08-04T05:14:35.370Z,4.73
2022-08-04T05:15:47.981Z,5.30
2022-08-04T05:18:00.256Z,4.53
2022-08-04T05:20:12.799Z,4.83
2022-08-04T05:22:27.038Z,4.30
2022-08-04T05:24:41.064Z,4.97
2022-08-04T05:26:55.123Z,4.40
2022-08-04T05:29:09.510Z,4.27
2022-08-04T05:31:24.745Z,4.13
2022-08-04T05:33:39.673Z,4.00
2022-08-04T05:36:18.374Z,4.27
2022-08-04T05:38:26.428Z,4.17
2022-08-04T05:40:34.538Z,4.00
2022-08-04T05:42:45.137Z,4.27
2022-08-04T05:44:53.414Z,4.53
2022-08-04T05:47:02.837Z,4.73
2022-08-04T05:49:15.852Z,4.50
2022-08-04T05:51:28.387Z,4.47
2022-08-04T05:53:37.585Z,3.90
2022-08-04T05:55:59.313Z,4.23
2022-08-04T05:58:11.644Z,4.43
2022-08-04T06:00:40.092Z,4.17
2022-08-04T06:02:54.322Z,3.97
2022-08-04T06:05:07.078Z,4.03
2022-08-04T06:07:16.338Z,4.57
2022-08-04T06:09:24.278Z,4.27
2022-08-04T06:11:33.122Z,4.47
2022-08-04T06:14:08.152Z,3.57
2022-08-04T06:16:30.176Z,4.27
2022-08-04T06:19:59.026Z,4.47
2022-08-04T06:21:16.039Z,4.33
2022-08-04T06:23:27.577Z,3.67
2022-08-04T06:25:37.186Z,3.83
2022-08-04T06:27:46.073Z,4.27
2022-08-04T06:29:57.615Z,4.53
2022-08-04T06:32:30.200Z,3.90
2022-08-04T06:34:42.475Z,4.03
2022-08-04T06:36:51.190Z,3.80
2022-08-04T06:39:00.870Z,4.10
2022-08-04T06:41:15.647Z,4.30
2022-08-04T06:43:24.947Z,4.60
2022-08-04T06:45:41.449Z,4.60
2022-08-04T06:47:50.593Z,4.57
2022-08-04T06:51:29.249Z,4.20
2022-08-04T06:52:28.486Z,3.70
2022-08-04T06:54:38.521Z,3.93
2022-08-04T06:56:47.529Z,4.00
2022-08-04T06:58:56.149Z,3.90
2022-08-04T07:01:07.747Z,4.47
2022-08-04T07:03:18.672Z,4.20
2022-08-04T07:05:28.146Z,4.13
2022-08-04T07:07:57.305Z,3.87
2022-08-04T07:10:07.599Z,3.90
2022-08-04T07:12:16.002Z,3.87
2022-08-04T07:14:27.074Z,4.07
2022-08-04T07:16:38.986Z,3.63
2022-08-04T07:18:47.174Z,3.97
2022-08-04T07:20:56.010Z,4.27
2022-08-04T07:23:07.073Z,4.33
2022-08-04T07:25:22.237Z,4.23
2022-08-04T07:27:49.562Z,4.10
2022-08-04T07:30:24.801Z,4.20
2022-08-04T07:32:35.900Z,4.27
2022-08-04T07:34:44.559Z,4.20
2022-08-04T07:37:00.728Z,3.97
2022-08-04T07:39:08.920Z,4.00
2022-08-04T07:41:38.717Z,3.60
2022-08-04T07:43:46.740Z,4.40
2022-08-04T07:45:56.761Z,3.60
2022-08-04T07:48:09.266Z,4.27
2022-08-04T07:50:18.011Z,4.23
2022-08-04T07:52:26.938Z,4.00
2022-08-04T07:54:36.876Z,4.47
2022-08-04T07:56:49.549Z,4.60
2022-08-04T07:58:57.562Z,4.90
2022-08-04T08:01:07.111Z,4.40
2022-08-04T08:03:21.788Z,4.40
2022-08-04T08:05:30.606Z,4.30
2022-08-04T08:07:38.574Z,5.33
2022-08-04T08:09:58.881Z,4.77
2022-08-04T08:12:36.578Z,4.70
2022-08-04T08:14:36.320Z,4.30
2022-08-04T08:16:44.257Z,4.70
2022-08-04T08:18:54.735Z,4.73
2022-08-04T08:21:03.793Z,4.53
2022-08-04T08:23:12.687Z,4.93
2022-08-04T08:25:20.681Z,4.67
2022-08-04T08:27:31.163Z,4.63
2022-08-04T08:29:42.598Z,4.70
2022-08-04T08:31:57.555Z,4.70
2022-08-04T08:34:11.496Z,4.60
2022-08-04T08:36:32.220Z,4.43
2022-08-04T08:38:46.001Z,4.60
2022-08-04T08:41:00.435Z,4.63
2022-08-04T08:44:00.367Z,3.63
2022-08-04T08:46:45.228Z,4.60
2022-08-04T08:49:11.803Z,4.37
2022-08-04T08:51:55.311Z,4.20
2022-08-04T08:54:23.315Z,4.47
2022-08-04T08:56:40.353Z,4.50
2022-08-04T08:59:05.289Z,4.50
2022-08-04T09:01:41.940Z,4.00
2022-08-04T09:04:23.658Z,4.50
2022-08-04T09:06:50.642Z,4.20
2022-08-04T09:09:18.619Z,3.43
2022-08-04T09:11:30.761Z,4.80
2022-08-04T09:13:44.494Z,4.30
2022-08-04T09:16:00.145Z,4.20
2022-08-04T09:18:21.214Z,3.03
2022-08-04T09:20:36.613Z,3.70
2022-08-04T09:22:54.623Z,3.50
2022-08-04T09:25:05.895Z,3.17
2022-08-04T09:27:22.819Z,3.23
2022-08-04T09:29:39.824Z,3.50
2022-08-04T09:32:06.246Z,3.30
2022-08-04T09:34:26.915Z,3.20
2022-08-04T09:36:40.169Z,3.20
2022-08-04T09:39:05.645Z,2.60
2022-08-04T09:41:48.525Z,3.30
2022-08-04T09:44:52.373Z,3.50
2022-08-04T09:46:45.698Z,3.00
2022-08-04T09:48:59.553Z,2.43
2022-08-04T09:51:23.602Z,3.00
2022-08-04T09:53:46.251Z,2.80
2022-08-04T09:56:06.361Z,3.10
2022-08-04T09:58:23.049Z,3.10
2022-08-04T10:00:41.132Z,2.67
2022-08-04T10:02:56.479Z,3.17
2022-08-04T10:05:06.580Z,3.30
2022-08-04T10:07:43.704Z,3.53
2022-08-04T10:10:34.981Z,3.47
2022-08-04T10:13:01.586Z,2.83
2022-08-04T10:15:16.605Z,3.57
2022-08-04T10:17:51.818Z,3.67
2022-08-04T10:20:10.391Z,3.47
2022-08-04T10:22:29.880Z,3.20
2022-08-04T10:24:56.342Z,2.90
2022-08-04T10:27:09.655Z,3.27
2022-08-04T10:29:25.428Z,3.40
2022-08-04T10:31:38.191Z,3.60
2022-08-04T10:33:54.077Z,3.43
2022-08-04T10:36:05.946Z,3.60
2022-08-04T10:38:26.778Z,3.33
2022-08-04T10:40:40.831Z,3.43
2022-08-04T10:43:00.417Z,3.63
2022-08-04T10:45:21.207Z,3.50
2022-08-04T10:47:38.095Z,3.30
2022-08-04T10:49:49.390Z,3.33
2022-08-04T10:52:06.204Z,3.60
2022-08-04T10:54:18.160Z,3.10
2022-08-04T10:56:33.875Z,3.47
2022-08-04T10:58:49.043Z,3.73
2022-08-04T11:01:05.959Z,2.93
2022-08-04T11:03:23.491Z,3.20
2022-08-04T11:05:44.084Z,3.40
2022-08-04T11:08:00.027Z,3.23
2022-08-04T11:10:10.253Z,3.07
2022-08-04T11:12:24.232Z,2.83
2022-08-04T11:14:38.865Z,3.03
2022-08-04T11:16:54.875Z,3.10
2022-08-04T11:19:14.596Z,2.43
2022-08-04T11:21:28.038Z,2.97
2022-08-04T11:23:40.602Z,3.33
2022-08-04T11:25:58.852Z,3.50
2022-08-04T11:28:14.134Z,3.20
2022-08-04T11:30:23.115Z,3.20
2022-08-04T11:32:46.299Z,3.13
2022-08-04T11:35:01.781Z,2.90
2022-08-04T11:37:18.994Z,2.87
2022-08-04T11:39:33.146Z,2.90
2022-08-04T11:41:49.904Z,2.90
2022-08-04T11:44:01.692Z,2.90
2022-08-04T11:46:16.093Z,3.00
2022-08-04T11:48:34.946Z,2.80
2022-08-04T11:50:53.226Z,3.20
2022-08-04T11:53:04.024Z,2.80
2022-08-04T11:55:15.499Z,2.90
2022-08-04T11:57:36.020Z,2.97
2022-08-04T11:59:45.919Z,2.70
2022-08-04T12:02:08.064Z,2.47
2022-08-04T12:04:32.309Z,3.10
2022-08-04T12:06:50.939Z,3.00
2022-08-04T12:09:11.186Z,2.70
2022-08-04T12:11:29.006Z,3.20
2022-08-04T12:13:44.838Z,3.37
2022-08-04T12:16:00.780Z,2.63
2022-08-04T12:18:17.297Z,3.10
2022-08-04T12:20:40.563Z,2.97
2022-08-04T12:22:53.370Z,3.47
2022-08-04T12:25:06.577Z,3.37
2022-08-04T12:27:18.501Z,3.40
2022-08-04T12:29:28.789Z,3.00
2022-08-04T12:31:45.323Z,2.83
2022-08-04T12:34:04.167Z,3.33
2022-08-04T12:36:26.612Z,3.20
2022-08-04T12:38:36.601Z,3.57
2022-08-04T12:40:49.645Z,2.90
2022-08-04T12:43:05.067Z,3.00
2022-08-04T12:45:14.298Z,3.00
2022-08-04T12:47:29.177Z,3.20
2022-08-04T12:49:39.771Z,3.60
2022-08-04T12:52:07.999Z,3.40
2022-08-04T12:54:29.045Z,2.90
2022-08-04T12:56:38.833Z,3.20
2022-08-04T12:58:52.910Z,3.27
2022-08-04T13:01:03.897Z,3.20
2022-08-04T13:03:43.069Z,3.27
2022-08-04T13:05:56.931Z,3.33
2022-08-04T13:08:09.270Z,3.17
2022-08-04T13:10:20.531Z,3.60
2022-08-04T13:12:39.672Z,3.50
2022-08-04T13:14:51.769Z,3.37
2022-08-04T13:17:06.523Z,3.60
2022-08-04T13:19:18.398Z,2.83
2022-08-04T13:21:49.845Z,3.30
2022-08-04T13:24:22.983Z,3.40
2022-08-04T13:26:55.488Z,3.70
2022-08-04T13:29:16.162Z,3.20
2022-08-04T13:31:35.658Z,3.30
2022-08-04T13:33:47.850Z,3.00
2022-08-04T13:35:56.714Z,3.37
2022-08-04T13:38:05.531Z,3.37
2022-08-04T13:40:19.808Z,3.80
2022-08-04T13:42:29.245Z,3.30
2022-08-04T13:44:40.886Z,3.60
2022-08-04T13:46:52.165Z,3.10
2022-08-04T13:49:28.285Z,3.27
2022-08-04T13:51:57.924Z,3.37
2022-08-04T13:54:04.029Z,3.47
2022-08-04T13:56:18.768Z,3.90
2022-08-04T13:58:28.726Z,3.70
2022-08-04T14:00:49.856Z,3.40
2022-08-04T14:03:19.039Z,3.70
2022-08-04T14:05:58.758Z,3.50
2022-08-04T14:08:08.521Z,3.60
2022-08-04T14:10:17.311Z,3.60
2022-08-04T14:12:38.529Z,3.23
2022-08-04T14:14:55.888Z,3.70
2022-08-04T14:17:07.178Z,3.60
2022-08-04T14:19:18.554Z,3.20
2022-08-04T14:21:38.531Z,3.63
2022-08-04T14:23:54.028Z,3.67
2022-08-04T14:26:01.946Z,3.10
2022-08-04T14:28:14.440Z,3.50
2022-08-04T14:30:27.880Z,3.53
2022-08-04T14:32:35.823Z,3.40
2022-08-04T14:34:48.214Z,3.87
2022-08-04T14:37:17.182Z,3.60
2022-08-04T14:39:40.728Z,3.60
2022-08-04T14:41:53.574Z,3.70
2022-08-04T14:44:07.269Z,3.90
2022-08-04T14:46:19.244Z,3.23
2022-08-04T14:48:27.348Z,3.83
2022-08-04T14:50:40.056Z,3.97
2022-08-04T14:52:48.050Z,3.50
2022-08-04T14:54:59.974Z,3.30
2022-08-04T14:57:12.808Z,3.60
2022-08-04T14:59:25.666Z,3.60
2022-08-04T15:01:36.172Z,4.10
2022-08-04T15:03:51.061Z,3.33
2022-08-04T15:06:09.487Z,3.33
2022-08-04T15:08:23.609Z,4.00
2022-08-04T15:10:37.869Z,3.23
2022-08-04T15:12:46.243Z,3.80
2022-08-04T15:15:05.266Z,4.00
2022-08-04T15:17:29.046Z,3.53
2022-08-04T15:19:39.752Z,3.07
2022-08-04T15:21:47.766Z,3.77
2022-08-04T15:23:55.736Z,3.73
2022-08-04T15:26:06.735Z,3.90
2022-08-04T15:28:19.318Z,3.67
2022-08-04T15:30:33.891Z,3.43
2022-08-04T15:32:45.073Z,3.53
2022-08-04T15:34:55.054Z,3.97
2022-08-04T15:37:09.366Z,3.50
2022-08-04T15:39:28.848Z,3.97
2022-08-04T15:41:46.474Z,3.60
2022-08-04T15:44:33.632Z,4.10
2022-08-04T15:47:13.962Z,3.80
2022-08-04T15:49:22.846Z,3.73
2022-08-04T15:51:32.839Z,4.10
2022-08-04T15:54:20.321Z,3.87
2022-08-04T15:57:02.065Z,4.33
2022-08-04T15:59:10.735Z,4.00
2022-08-04T16:01:19.669Z,3.90
2022-08-04T16:03:53.217Z,4.00
2022-08-04T16:06:48.813Z,3.73
2022-08-04T16:09:04.047Z,4.30
2022-08-04T16:11:42.885Z,3.90
2022-08-04T16:14:10.994Z,4.20
2022-08-04T16:16:30.854Z,4.00
2022-08-04T16:18:43.908Z,3.77
2022-08-04T16:21:23.374Z,4.30
2022-08-04T16:24:06.198Z,3.93
2022-08-04T16:26:16.050Z,4.10
2022-08-04T16:28:45.859Z,3.83
2022-08-04T16:31:05.500Z,3.87
2022-08-04T16:33:14.928Z,3.67
2022-08-04T16:35:42.168Z,4.23
2022-08-04T16:37:56.645Z,3.80
2022-08-04T16:40:41.224Z,3.70
2022-08-04T16:42:49.196Z,3.80
2022-08-04T16:45:20.839Z,3.80
2022-08-04T16:47:59.091Z,3.97
2022-08-04T16:50:12.425Z,4.03
2022-08-04T16:52:20.405Z,4.27
2022-08-04T16:54:32.196Z,4.00
2022-08-04T16:56:40.766Z,4.20
2022-08-04T16:58:54.154Z,3.90
2022-08-04T17:01:10.321Z,3.73
2022-08-04T17:03:32.269Z,3.50
2022-08-04T17:05:40.704Z,3.93
2022-08-04T17:08:28.091Z,4.33
2022-08-04T17:10:38.590Z,3.57
2022-08-04T17:12:46.771Z,3.83
2022-08-04T17:14:54.667Z,4.20
2022-08-04T17:17:04.925Z,3.73
2022-08-04T17:19:24.219Z,4.27
2022-08-04T17:21:37.109Z,4.10
2022-08-04T17:24:14.513Z,4.00
2022-08-04T17:26:22.110Z,3.67
2022-08-04T17:28:39.973Z,3.93
2022-08-04T17:30:58.979Z,4.00
2022-08-04T17:33:15.929Z,4.03
2022-08-04T17:35:24.204Z,4.40
2022-08-04T17:37:37.977Z,3.60
2022-08-04T17:39:52.551Z,3.80
2022-08-04T17:42:03.066Z,4.00
2022-08-04T17:44:11.192Z,3.87
2022-08-04T17:46:28.809Z,3.90
2022-08-04T17:48:44.409Z,4.17
2022-08-04T17:50:52.375Z,4.20
2022-08-04T17:53:11.255Z,3.83
2022-08-04T17:55:23.006Z,4.10
2022-08-04T17:57:33.447Z,4.20
2022-08-04T17:59:56.751Z,4.40
2022-08-04T18:02:08.924Z,4.13
2022-08-04T18:04:30.812Z,3.93
2022-08-04T18:06:41.197Z,3.83
2022-08-04T18:11:28.697Z,4.20
2022-08-04T18:13:43.547Z,4.03
2022-08-04T18:15:53.116Z,4.80
2022-08-04T18:18:21.162Z,4.40
2022-08-04T18:20:29.927Z,4.20
2022-08-04T18:22:42.063Z,3.80
2022-08-04T18:24:56.176Z,4.33
2022-08-04T18:27:06.702Z,4.83
2022-08-04T18:29:31.105Z,3.80
2022-08-04T18:31:41.406Z,4.27
2022-08-04T18:33:56.948Z,4.47
2022-08-04T18:36:35.231Z,4.57
2022-08-04T18:38:33.259Z,4.27
2022-08-04T18:40:52.353Z,4.40
2022-08-04T18:43:03.631Z,4.33
2022-08-04T18:45:15.179Z,4.67
2022-08-04T18:47:25.026Z,4.63
2022-08-04T18:51:01.808Z,4.97
2022-08-04T18:52:12.975Z,5.20
2022-08-04T18:54:23.739Z,5.97
2022-08-04T18:56:33.217Z,5.70
2022-08-04T18:58:41.112Z,5.10
2022-08-04T19:00:55.965Z,5.30
2022-08-04T19:03:03.971Z,4.87
2022-08-04T19:05:17.043Z,5.80
2022-08-04T19:08:01.854Z,5.20
2022-08-04T19:09:57.287Z,5.10
2022-08-04T19:12:06.055Z,4.67
2022-08-04T19:14:14.569Z,4.87
2022-08-04T19:16:25.236Z,4.90
2022-08-04T19:18:33.290Z,5.00
2022-08-04T19:20:44.717Z,5.07
2022-08-04T19:24:30.000Z,5.27
2022-08-04T19:26:01.912Z,5.90
2022-08-04T19:27:57.780Z,5.70
2022-08-04T19:30:06.184Z,5.80
2022-08-04T19:32:22.059Z,5.53
2022-08-04T19:34:34.739Z,5.53
2022-08-04T19:36:45.974Z,5.37
2022-08-04T19:38:54.133Z,5.87
2022-08-04T19:41:02.053Z,5.73
2022-08-04T19:43:22.985Z,5.90
2022-08-04T19:45:44.477Z,5.50
2022-08-04T19:48:16.268Z,5.20
2022-08-04T19:50:24.710Z,5.37
2022-08-04T19:52:33.820Z,5.20
2022-08-04T19:54:42.311Z,5.70
2022-08-04T19:56:54.286Z,5.50
2022-08-04T19:59:03.333Z,5.00
2022-08-04T20:01:31.198Z,5.23
2022-08-04T20:04:08.915Z,5.13
2022-08-04T20:06:10.224Z,6.27
2022-08-04T20:08:18.107Z,6.30
2022-08-04T20:10:26.114Z,6.20
2022-08-04T20:12:34.103Z,6.03
2022-08-04T20:14:41.985Z,6.80
2022-08-04T20:16:50.104Z,6.00
2022-08-04T20:19:04.517Z,6.30
2022-08-04T20:21:19.393Z,5.70
2022-08-04T20:23:48.448Z,6.23
2022-08-04T20:25:57.867Z,6.20
2022-08-04T20:28:09.474Z,6.37
2022-08-04T20:30:34.283Z,6.07
2022-08-04T20:32:52.759Z,6.13
2022-08-04T20:35:03.739Z,6.53
2022-08-04T20:37:17.834Z,6.50
2022-08-04T20:39:25.936Z,7.07
2022-08-04T20:41:36.894Z,6.10
2022-08-04T20:43:49.650Z,7.00
2022-08-04T20:45:59.643Z,6.83
2022-08-04T20:48:08.467Z,6.80
2022-08-04T20:50:29.494Z,6.53
2022-08-04T20:52:39.589Z,6.60
2022-08-04T20:54:48.543Z,6.73
2022-08-04T20:56:58.371Z,7.27
2022-08-04T20:59:07.658Z,6.53
2022-08-04T21:01:16.303Z,7.00
2022-08-04T21:03:49.458Z,6.33
2022-08-04T21:05:56.826Z,6.60
2022-08-04T21:08:04.690Z,7.30
2022-08-04T21:10:12.778Z,7.33
2022-08-04T21:12:27.695Z,8.13
2022-08-04T21:14:39.893Z,7.50
2022-08-04T21:16:55.813Z,7.77
2022-08-04T21:19:04.359Z,7.03
2022-08-04T21:21:14.841Z,6.57
2022-08-04T21:23:22.865Z,6.70
2022-08-04T21:25:30.988Z,7.40
2022-08-04T21:27:39.514Z,6.93
2022-08-04T21:29:47.599Z,8.00
2022-08-04T21:31:59.271Z,7.17
2022-08-04T21:34:07.102Z,8.23
2022-08-04T21:36:20.557Z,7.63
2022-08-04T21:38:31.367Z,7.93
2022-08-04T21:40:39.329Z,7.50
2022-08-04T21:42:50.101Z,7.97
2022-08-04T21:47:46.042Z,7.93
2022-08-04T21:49:59.564Z,7.50
2022-08-04T21:52:11.757Z,7.53
2022-08-04T21:54:19.743Z,7.03
2022-08-04T21:56:27.566Z,6.70
2022-08-04T21:58:37.695Z,7.10
2022-08-04T22:00:45.625Z,7.07
2022-08-04T22:03:02.788Z,6.60
2022-08-04T22:05:15.793Z,7.20
2022-08-04T22:07:50.021Z,7.60
2022-08-04T22:10:00.487Z,7.40
2022-08-04T22:12:12.074Z,7.70
2022-08-04T22:14:27.225Z,8.20
2022-08-04T22:16:38.412Z,7.80
2022-08-04T22:18:47.952Z,7.50
2022-08-04T22:20:56.508Z,7.57
2022-08-04T22:25:37.803Z,7.53
2022-08-04T22:28:10.010Z,8.30
2022-08-04T22:30:18.896Z,8.07
2022-08-04T22:32:26.826Z,8.55
2022-08-04T22:34:39.464Z,7.97
2022-08-04T22:36:54.027Z,7.90
2022-08-04T22:39:07.586Z,7.80
2022-08-04T22:41:17.065Z,7.40
2022-08-04T22:43:32.727Z,7.78
2022-08-04T22:45:46.209Z,8.75
2022-08-04T22:47:54.177Z,8.30
2022-08-04T22:50:27.026Z,8.20
2022-08-04T22:52:32.179Z,7.85
2022-08-04T22:54:42.685Z,8.02
2022-08-04T22:56:55.731Z,8.60
2022-08-04T22:59:06.751Z,8.02
2022-08-04T23:01:25.527Z,8.63
2022-08-04T23:03:41.294Z,8.18
2022-08-04T23:05:59.225Z,8.48
2022-08-04T23:08:26.655Z,8.30
2022-08-04T23:10:39.080Z,8.52
2022-08-04T23:12:49.431Z,7.45
2022-08-04T23:15:00.800Z,8.35
2022-08-04T23:17:08.840Z,8.40
2022-08-04T23:19:17.427Z,7.97
2022-08-04T23:21:25.431Z,8.30
2022-08-04T23:23:33.361Z,8.77
2022-08-04T23:26:08.547Z,8.25
2022-08-04T23:28:15.545Z,9.40
2022-08-04T23:30:29.913Z,8.40
2022-08-04T23:32:38.411Z,8.93
2022-08-04T23:34:49.696Z,8.73
2022-08-04T23:36:59.265Z,8.70
2022-08-04T23:39:08.291Z,8.90
2022-08-04T23:41:21.180Z,8.48
2022-08-04T23:43:49.210Z,9.20
2022-08-04T23:46:06.359Z,9.45
2022-08-04T23:48:21.079Z,9.20
2022-08-04T23:50:29.175Z,8.57
2022-08-04T23:52:36.929Z,8.65
2022-08-04T23:54:45.048Z,9.15
2022-08-04T23:57:00.694Z,8.80
2022-08-04T23:59:23.125Z,9.32
